Time;durP1;ratioP1;P1;durP2;ratioP2;P2;SDS_P1;SDS_P2;PMS_P1;PMS_P2;Temp;Humidity;BMP_temperature;BMP_pressure;BME280_temperature;BME280_humidity;BME280_pressure;Samples;Min_cycle;Max_cycle;Signal;HPM_P1;HPM_P2
2021/08/26 00:07:10;;;;;;;7.40;3.75;;;;;;;;;;4972892;28;20058;-90
2021/08/26 00:09:38;;;;;;;8.55;3.67;;;;;;;;;;4974054;28;20097;-90
2021/08/26 00:12:07;;;;;;;6.30;3.50;;;;;;;;;;4976056;28;20130;-90
2021/08/26 00:14:37;;;;;;;8.98;3.55;;;;;;;;;;4975558;28;20073;-91
2021/08/26 00:17:05;;;;;;;7.95;3.80;;;;;;;;;;4976084;28;20059;-90
2021/08/26 00:19:34;;;;;;;10.98;4.38;;;;;;;;;;4976051;28;20102;-90
2021/08/26 00:22:03;;;;;;;7.57;3.40;;;;;;;;;;4976144;28;20047;-90
2021/08/26 00:24:31;;;;;;;8.05;3.50;;;;;;;;;;4975243;28;20057;-90
2021/08/26 00:26:59;;;;;;;8.07;3.42;;;;;;;;;;4975743;28;20047;-91
2021/08/26 00:29:27;;;;;;;10.55;4.20;;;;;;;;;;4976153;28;20065;-91
2021/08/26 00:31:57;;;;;;;8.07;3.65;;;;;;;;;;4975521;28;20055;-91
2021/08/26 00:34:25;;;;;;;6.25;3.05;;;;;;;;;;4975010;28;20065;-91
2021/08/26 00:36:54;;;;;;;8.80;3.80;;;;;;;;;;4976009;28;20043;-90
2021/08/26 00:39:22;;;;;;;7.72;3.88;;;;;;;;;;4975833;28;20050;-90
2021/08/26 00:41:50;;;;;;;8.68;3.42;;;;;;;;;;4975557;28;20078;-91
2021/08/26 00:44:19;;;;;;;6.80;3.72;;;;;;;;;;4955840;28;20134;-90
2021/08/26 00:46:48;;;;;;;7.28;3.30;;;;;;;;;;4955593;29;20047;-90
2021/08/26 00:49:18;;;;;;;7.43;3.55;;;;;;;;;;4973773;28;20051;-90
2021/08/26 00:51:47;;;;;;;8.70;3.58;;;;;;;;;;4975787;28;20141;-90
2021/08/26 00:54:15;;;;;;;9.80;4.10;;;;;;;;;;4974843;28;20051;-91
2021/08/26 00:56:43;;;;;;;10.45;4.15;;;;;;;;;;4968738;28;20047;-90
2021/08/26 00:59:12;;;;;;;8.88;3.85;;;;;;;;;;4958952;28;20220;-90
2021/08/26 01:01:44;;;;;;;10.27;3.83;;;;;;;;;;4975354;28;20487;-89
2021/08/26 01:04:17;;;;;;;10.32;3.42;;;;;;;;;;4974692;28;20058;-90
2021/08/26 01:06:50;;;;;;;6.75;3.35;;;;;;;;;;4975673;28;20065;-90
2021/08/26 01:09:19;;;;;;;9.20;4.28;;;;;;;;;;4975336;28;20145;-89
2021/08/26 01:11:48;;;;;;;4.60;2.90;;;;;;;;;;4975291;28;20050;-90
2021/08/26 01:14:17;;;;;;;8.27;3.72;;;;;;;;;;4974332;28;20054;-89
2021/08/26 01:16:45;;;;;;;7.75;3.47;;;;;;;;;;4974988;28;20047;-90
2021/08/26 01:19:14;;;;;;;7.03;3.72;;;;;;;;;;4974283;28;20058;-90
2021/08/26 01:21:42;;;;;;;9.05;4.22;;;;;;;;;;4974801;28;20141;-90
2021/08/26 01:24:15;;;;;;;7.90;3.42;;;;;;;;;;4974523;28;20050;-90
2021/08/26 01:26:47;;;;;;;10.77;3.63;;;;;;;;;;4974965;28;20106;-90
2021/08/26 01:29:18;;;;;;;9.43;3.80;;;;;;;;;;4957560;28;20143;-90
2021/08/26 01:31:47;;;;;;;9.95;3.25;;;;;;;;;;4974749;28;20062;-90
2021/08/26 01:34:16;;;;;;;7.60;3.20;;;;;;;;;;4973917;28;20053;-90
2021/08/26 01:36:45;;;;;;;6.90;3.38;;;;;;;;;;4957437;28;20042;-91
2021/08/26 01:39:14;;;;;;;7.30;3.10;;;;;;;;;;4974536;28;20050;-89
2021/08/26 01:41:44;;;;;;;8.98;3.47;;;;;;;;;;4974987;28;20133;-90
2021/08/26 01:44:16;;;;;;;7.45;3.67;;;;;;;;;;4975023;28;20129;-90
2021/08/26 01:46:45;;;;;;;11.40;3.75;;;;;;;;;;4975415;28;20094;-91
2021/08/26 01:49:13;;;;;;;7.93;3.83;;;;;;;;;;4971734;28;20483;-90
2021/08/26 01:51:42;;;;;;;7.43;3.53;;;;;;;;;;4975701;28;20154;-89
2021/08/26 01:54:10;;;;;;;7.00;3.65;;;;;;;;;;4974276;28;20058;-89
2021/08/26 01:56:39;;;;;;;10.93;3.90;;;;;;;;;;4967262;28;20389;-90
2021/08/26 01:59:07;;;;;;;8.45;3.75;;;;;;;;;;4954680;29;20051;-90
2021/08/26 02:01:37;;;;;;;7.72;3.78;;;;;;;;;;4954819;29;20053;-90
2021/08/26 02:04:06;;;;;;;7.80;3.83;;;;;;;;;;4953687;28;20051;-89
2021/08/26 02:06:34;;;;;;;7.88;3.60;;;;;;;;;;4954273;29;20047;-90
2021/08/26 02:09:03;;;;;;;5.85;3.17;;;;;;;;;;4972225;28;20062;-90
2021/08/26 02:11:31;;;;;;;9.90;3.88;;;;;;;;;;4974020;28;20137;-90
2021/08/26 02:13:59;;;;;;;6.95;3.60;;;;;;;;;;4957884;28;20137;-90
2021/08/26 02:16:28;;;;;;;8.90;3.75;;;;;;;;;;4973874;28;20046;-90
2021/08/26 02:18:58;;;;;;;10.70;4.00;;;;;;;;;;4956975;28;20051;-89
2021/08/26 02:21:28;;;;;;;8.18;3.75;;;;;;;;;;4973519;28;20046;-90
2021/08/26 02:23:56;;;;;;;6.28;3.50;;;;;;;;;;4972778;28;20499;-90
2021/08/26 02:26:25;;;;;;;8.43;3.22;;;;;;;;;;4973740;28;20043;-90
2021/08/26 02:28:53;;;;;;;8.40;3.92;;;;;;;;;;4973660;28;20130;-90
2021/08/26 02:31:21;;;;;;;7.40;4.00;;;;;;;;;;4973014;28;20055;-90
2021/08/26 02:33:50;;;;;;;10.50;3.83;;;;;;;;;;4973711;28;20407;-90
2021/08/26 02:36:20;;;;;;;8.20;4.07;;;;;;;;;;4974297;28;20495;-90
2021/08/26 02:38:49;;;;;;;6.70;3.80;;;;;;;;;;4973691;28;20137;-89
2021/08/26 02:41:18;;;;;;;8.00;3.72;;;;;;;;;;4973608;28;20047;-90
2021/08/26 02:43:46;;;;;;;7.22;4.00;;;;;;;;;;4955922;28;20134;-90
2021/08/26 02:46:14;;;;;;;6.03;3.75;;;;;;;;;;4973721;28;20051;-90
2021/08/26 02:48:43;;;;;;;7.93;3.40;;;;;;;;;;4973575;28;20137;-89
2021/08/26 02:51:11;;;;;;;7.05;3.63;;;;;;;;;;4973590;28;20410;-90
2021/08/26 02:53:41;;;;;;;7.95;3.67;;;;;;;;;;4973223;28;20064;-90
2021/08/26 02:56:10;;;;;;;8.88;3.60;;;;;;;;;;4970696;28;20139;-90
2021/08/26 02:58:38;;;;;;;7.78;3.72;;;;;;;;;;4960666;28;20491;-91
2021/08/26 03:01:07;;;;;;;6.68;3.63;;;;;;;;;;4973349;28;20133;-90
2021/08/26 03:03:35;;;;;;;9.32;4.03;;;;;;;;;;4972371;28;20101;-89
2021/08/26 03:06:04;;;;;;;8.40;3.90;;;;;;;;;;4973229;28;20052;-90
2021/08/26 03:08:35;;;;;;;9.70;3.97;;;;;;;;;;4973211;28;20061;-91
2021/08/26 03:11:04;;;;;;;7.05;3.67;;;;;;;;;;4972955;28;20050;-91
2021/08/26 03:13:33;;;;;;;8.32;4.03;;;;;;;;;;4972680;28;20526;-90
2021/08/26 03:16:04;;;;;;;11.00;4.22;;;;;;;;;;4973108;28;20059;-89
2021/08/26 03:18:33;;;;;;;8.10;4.05;;;;;;;;;;4973295;28;20138;-91
2021/08/26 03:21:02;;;;;;;7.75;4.20;;;;;;;;;;4972777;28;20050;-91
2021/08/26 03:23:30;;;;;;;8.30;4.45;;;;;;;;;;4956497;28;20047;-90
2021/08/26 03:26:12;;;;;;;7.78;4.50;;;;;;;;;;3896741;28;10002071;-90
2021/08/26 03:28:41;;;;;;;8.13;4.10;;;;;;;;;;2052224;28;10002013;-90
2021/08/26 03:31:10;;;;;;;10.23;4.25;;;;;;;;;;4973418;28;20499;-90
2021/08/26 03:33:38;;;;;;;10.60;4.30;;;;;;;;;;4962990;28;20657;-90
2021/08/26 03:36:06;;;;;;;12.05;4.88;;;;;;;;;;4972412;28;20043;-90
2021/08/26 03:38:34;;;;;;;18.30;4.88;;;;;;;;;;4973325;28;20113;-90
2021/08/26 03:41:03;;;;;;;9.88;4.60;;;;;;;;;;4972835;28;20046;-90
2021/08/26 03:43:32;;;;;;;8.80;4.50;;;;;;;;;;4974411;28;20133;-90
2021/08/26 03:46:01;;;;;;;11.32;4.80;;;;;;;;;;4973267;28;20046;-90
2021/08/26 03:48:29;;;;;;;9.95;4.35;;;;;;;;;;4965480;28;20083;-91
2021/08/26 03:50:57;;;;;;;9.05;3.80;;;;;;;;;;4974798;28;20051;-90
2021/08/26 03:53:26;;;;;;;12.30;4.55;;;;;;;;;;4976410;28;20129;-91
2021/08/26 03:55:55;;;;;;;7.55;4.55;;;;;;;;;;4975499;28;20061;-90
2021/08/26 03:58:23;;;;;;;9.98;4.10;;;;;;;;;;4957124;29;20088;-90
2021/08/26 04:00:52;;;;;;;8.40;4.28;;;;;;;;;;4956964;29;20043;-90
2021/08/26 04:03:21;;;;;;;11.35;4.72;;;;;;;;;;4956325;29;20047;-89
2021/08/26 04:05:50;;;;;;;8.95;4.38;;;;;;;;;;4957797;28;20062;-90
2021/08/26 04:08:18;;;;;;;10.85;4.20;;;;;;;;;;4976352;28;20051;-91
2021/08/26 04:10:46;;;;;;;10.60;4.38;;;;;;;;;;4976401;28;20059;-90
2021/08/26 04:13:15;;;;;;;9.98;4.50;;;;;;;;;;4977142;28;20142;-89
2021/08/26 04:15:43;;;;;;;10.43;4.43;;;;;;;;;;4978442;28;20055;-90
2021/08/26 04:18:13;;;;;;;10.30;4.43;;;;;;;;;;4976150;28;20053;-90
2021/08/26 04:20:42;;;;;;;11.50;4.68;;;;;;;;;;4976962;28;20049;-89
2021/08/26 04:23:10;;;;;;;8.98;3.92;;;;;;;;;;4976451;28;20046;-89
2021/08/26 04:25:39;;;;;;;10.38;4.47;;;;;;;;;;4975417;28;20146;-90
2021/08/26 04:28:07;;;;;;;11.95;4.78;;;;;;;;;;4975901;28;20054;-90
2021/08/26 04:30:35;;;;;;;8.85;4.38;;;;;;;;;;4975669;28;20166;-90
2021/08/26 04:33:05;;;;;;;9.65;4.68;;;;;;;;;;4975686;28;20050;-91
2021/08/26 04:35:38;;;;;;;8.38;4.13;;;;;;;;;;4975317;28;20138;-90
2021/08/26 04:38:06;;;;;;;10.60;4.68;;;;;;;;;;4975405;28;20141;-90
2021/08/26 04:40:35;;;;;;;10.23;4.47;;;;;;;;;;4975554;28;20243;-90
2021/08/26 04:43:03;;;;;;;9.88;4.28;;;;;;;;;;4958506;28;20137;-90
2021/08/26 04:45:31;;;;;;;8.77;4.55;;;;;;;;;;4974979;28;20062;-90
2021/08/26 04:48:00;;;;;;;9.55;4.03;;;;;;;;;;4975319;28;20061;-90
2021/08/26 04:50:28;;;;;;;8.15;4.00;;;;;;;;;;4975475;28;20050;-89
2021/08/26 04:52:58;;;;;;;14.20;4.97;;;;;;;;;;4975879;28;20070;-90
2021/08/26 04:55:26;;;;;;;8.90;4.57;;;;;;;;;;4974226;28;20053;-91
2021/08/26 04:57:55;;;;;;;9.20;4.80;;;;;;;;;;4975303;28;20463;-91
2021/08/26 05:00:24;;;;;;;8.30;4.57;;;;;;;;;;4975985;28;20169;-90
2021/08/26 05:02:52;;;;;;;10.38;4.45;;;;;;;;;;4983618;28;20051;-88
2021/08/26 05:05:21;;;;;;;10.05;4.57;;;;;;;;;;4976858;28;20191;-88
2021/08/26 05:07:49;;;;;;;8.77;4.93;;;;;;;;;;4975266;28;20054;-88
2021/08/26 05:10:20;;;;;;;9.80;4.28;;;;;;;;;;4974779;28;20050;-87
2021/08/26 05:12:48;;;;;;;9.10;4.65;;;;;;;;;;4974667;28;20058;-88
2021/08/26 05:15:18;;;;;;;8.57;4.30;;;;;;;;;;4974145;28;20053;-88
2021/08/26 05:17:46;;;;;;;11.65;5.10;;;;;;;;;;4975060;28;20475;-88
2021/08/26 05:20:14;;;;;;;10.02;4.20;;;;;;;;;;4975564;28;20109;-89
2021/08/26 05:22:43;;;;;;;10.43;4.43;;;;;;;;;;4974327;28;20055;-88
2021/08/26 05:25:11;;;;;;;8.05;4.15;;;;;;;;;;4974413;28;20055;-89
2021/08/26 05:27:41;;;;;;;8.60;4.30;;;;;;;;;;4974780;28;20050;-88
2021/08/26 05:30:10;;;;;;;9.13;4.72;;;;;;;;;;4974898;28;20399;-89
2021/08/26 05:32:38;;;;;;;11.88;4.70;;;;;;;;;;4957018;28;20109;-88
2021/08/26 05:35:07;;;;;;;9.05;4.25;;;;;;;;;;4956908;28;20145;-88
2021/08/26 05:37:35;;;;;;;10.23;4.72;;;;;;;;;;4974146;28;20599;-89
2021/08/26 05:40:04;;;;;;;10.77;4.88;;;;;;;;;;4974490;28;20046;-89
2021/08/26 05:42:33;;;;;;;10.55;4.40;;;;;;;;;;4974669;28;20542;-88
2021/08/26 05:45:03;;;;;;;8.85;4.30;;;;;;;;;;4974412;28;20127;-92
2021/08/26 05:47:31;;;;;;;9.40;4.80;;;;;;;;;;4974661;28;20133;-91
2021/08/26 05:49:59;;;;;;;10.40;4.72;;;;;;;;;;4968383;28;20055;-90
2021/08/26 05:52:30;;;;;;;10.45;5.95;;;;;;;;;;4955623;29;20141;-90
2021/08/26 05:54:58;;;;;;;8.32;4.50;;;;;;;;;;4954568;28;20043;-91
2021/08/26 05:57:27;;;;;;;10.88;4.93;;;;;;;;;;4955730;28;20238;-90
2021/08/26 05:59:55;;;;;;;9.35;4.60;;;;;;;;;;4954843;29;20478;-90
2021/08/26 06:02:25;;;;;;;8.38;4.53;;;;;;;;;;4954212;29;20062;-91
2021/08/26 06:04:53;;;;;;;8.63;4.32;;;;;;;;;;4954389;28;20416;-92
2021/08/26 06:07:22;;;;;;;11.18;5.00;;;;;;;;;;4973497;28;20051;-90
2021/08/26 06:09:50;;;;;;;12.15;5.43;;;;;;;;;;4974788;28;20043;-88
2021/08/26 06:12:18;;;;;;;9.13;5.07;;;;;;;;;;4974021;28;20054;-88
2021/08/26 06:14:47;;;;;;;11.60;5.05;;;;;;;;;;4973222;28;20065;-88
2021/08/26 06:17:15;;;;;;;9.38;5.15;;;;;;;;;;4973821;28;20134;-88
2021/08/26 06:19:45;;;;;;;11.75;5.32;;;;;;;;;;4973914;28;20043;-87
2021/08/26 06:22:13;;;;;;;12.30;4.85;;;;;;;;;;4973833;28;20093;-88
2021/08/26 06:24:41;;;;;;;11.77;5.38;;;;;;;;;;4973872;28;20065;-87
2021/08/26 06:27:10;;;;;;;9.02;4.85;;;;;;;;;;4974026;28;20061;-91
2021/08/26 06:29:38;;;;;;;11.32;5.15;;;;;;;;;;4974876;28;20100;-91
2021/08/26 06:32:08;;;;;;;9.63;4.82;;;;;;;;;;4957561;28;20142;-89
2021/08/26 06:34:36;;;;;;;13.02;5.55;;;;;;;;;;4973319;28;20253;-86
2021/08/26 06:37:06;;;;;;;12.43;6.05;;;;;;;;;;4976126;28;20081;-92
2021/08/26 06:39:34;;;;;;;9.70;4.97;;;;;;;;;;4973770;28;20149;-87
2021/08/26 06:42:02;;;;;;;15.95;5.65;;;;;;;;;;4973435;28;20066;-88
2021/08/26 06:44:31;;;;;;;11.23;5.22;;;;;;;;;;4972480;28;20142;-89
2021/08/26 06:47:00;;;;;;;12.98;5.10;;;;;;;;;;4973628;28;20502;-86
2021/08/26 06:49:28;;;;;;;12.68;5.53;;;;;;;;;;4954332;28;20146;-90
2021/08/26 06:51:56;;;;;;;12.07;5.38;;;;;;;;;;4954453;29;20054;-89
2021/08/26 06:54:27;;;;;;;8.75;5.07;;;;;;;;;;4943484;28;20083;-89
2021/08/26 06:56:57;;;;;;;12.25;4.97;;;;;;;;;;4962130;28;20488;-88
2021/08/26 06:59:26;;;;;;;9.98;4.90;;;;;;;;;;4939738;28;20057;-88
2021/08/26 07:01:54;;;;;;;11.23;4.85;;;;;;;;;;4973498;28;20046;-89
2021/08/26 07:04:24;;;;;;;14.13;5.25;;;;;;;;;;4951316;29;20065;-89
2021/08/26 07:06:53;;;;;;;16.00;5.40;;;;;;;;;;4953612;28;20059;-89
2021/08/26 07:09:21;;;;;;;11.65;5.18;;;;;;;;;;4952996;28;20054;-88
2021/08/26 07:11:51;;;;;;;14.30;5.78;;;;;;;;;;4953825;28;20134;-89
2021/08/26 07:14:20;;;;;;;10.60;5.10;;;;;;;;;;4953278;28;20609;-88
2021/08/26 07:16:48;;;;;;;12.73;4.95;;;;;;;;;;4953363;29;20582;-88
2021/08/26 07:19:17;;;;;;;12.40;5.90;;;;;;;;;;4959449;28;20043;-86
2021/08/26 07:21:46;;;;;;;13.75;6.13;;;;;;;;;;4960982;28;20078;-89
2021/08/26 07:24:15;;;;;;;11.90;5.32;;;;;;;;;;4959469;28;20106;-90
2021/08/26 07:26:45;;;;;;;9.23;5.00;;;;;;;;;;4943335;29;20090;-89
2021/08/26 07:29:16;;;;;;;14.18;5.53;;;;;;;;;;4960341;28;20047;-89
2021/08/26 07:31:46;;;;;;;16.15;6.85;;;;;;;;;;4960422;29;20107;-89
2021/08/26 07:34:14;;;;;;;13.23;5.97;;;;;;;;;;4956774;28;20141;-88
2021/08/26 07:36:44;;;;;;;13.50;6.32;;;;;;;;;;4969093;28;20102;-90
2021/08/26 07:39:12;;;;;;;16.13;7.38;;;;;;;;;;4960537;28;20444;-88
2021/08/26 07:41:41;;;;;;;16.75;6.45;;;;;;;;;;4959901;28;20508;-89
2021/08/26 07:44:11;;;;;;;14.45;6.35;;;;;;;;;;4960466;28;20082;-89
2021/08/26 07:46:42;;;;;;;14.55;6.25;;;;;;;;;;4960585;28;20078;-89
2021/08/26 07:49:11;;;;;;;19.08;7.68;;;;;;;;;;4961069;28;20062;-89
2021/08/26 07:51:43;;;;;;;19.20;8.35;;;;;;;;;;4960742;28;20055;-87
2021/08/26 07:54:12;;;;;;;19.48;7.35;;;;;;;;;;4956055;28;20055;-89
2021/08/26 07:56:41;;;;;;;16.63;7.78;;;;;;;;;;4952733;28;20551;-89
2021/08/26 07:59:10;;;;;;;21.00;7.88;;;;;;;;;;4941098;29;20051;-89
2021/08/26 08:01:39;;;;;;;18.33;7.60;;;;;;;;;;4941248;29;20054;-89
2021/08/26 08:04:11;;;;;;;21.58;8.77;;;;;;;;;;4950135;28;20109;-89
2021/08/26 08:06:40;;;;;;;16.63;7.78;;;;;;;;;;4962784;28;20086;-88
2021/08/26 08:09:10;;;;;;;15.40;7.78;;;;;;;;;;4979234;28;20081;-89
2021/08/26 08:11:39;;;;;;;18.35;7.95;;;;;;;;;;4979352;28;20054;-90
2021/08/26 08:14:07;;;;;;;17.73;7.85;;;;;;;;;;4978098;28;20105;-88
2021/08/26 08:16:37;;;;;;;19.80;9.02;;;;;;;;;;4978753;28;20047;-89
2021/08/26 08:19:05;;;;;;;19.63;8.05;;;;;;;;;;4978835;28;20113;-88
2021/08/26 08:21:35;;;;;;;17.63;9.45;;;;;;;;;;4978866;28;20053;-89
2021/08/26 08:24:04;;;;;;;18.75;8.88;;;;;;;;;;4978354;28;20077;-88
2021/08/26 08:26:33;;;;;;;17.98;8.50;;;;;;;;;;4978958;28;20043;-89
2021/08/26 08:29:01;;;;;;;20.17;9.80;;;;;;;;;;4977908;28;20051;-89
2021/08/26 08:31:31;;;;;;;20.08;8.48;;;;;;;;;;4974710;28;20058;-89
2021/08/26 08:34:01;;;;;;;19.83;9.77;;;;;;;;;;4974550;28;20447;-89
2021/08/26 08:36:30;;;;;;;18.10;7.82;;;;;;;;;;4975545;28;20043;-89
2021/08/26 08:39:00;;;;;;;17.40;8.25;;;;;;;;;;4975455;28;20491;-89
2021/08/26 08:41:31;;;;;;;21.70;8.82;;;;;;;;;;4975218;28;20509;-89
2021/08/26 08:44:00;;;;;;;17.38;8.73;;;;;;;;;;4975190;28;20066;-89
2021/08/26 08:46:34;;;;;;;17.63;8.95;;;;;;;;;;4975821;28;20166;-88
2021/08/26 08:49:05;;;;;;;15.82;8.32;;;;;;;;;;4975319;28;20130;-88
2021/08/26 08:51:35;;;;;;;18.67;8.93;;;;;;;;;;4975334;28;20050;-88
2021/08/26 08:54:05;;;;;;;20.83;9.30;;;;;;;;;;4975404;28;20051;-88
2021/08/26 08:56:34;;;;;;;18.55;9.75;;;;;;;;;;4974943;28;20089;-89
2021/08/26 08:59:04;;;;;;;20.27;9.15;;;;;;;;;;4975238;28;20047;-90
2021/08/26 09:01:33;;;;;;;20.15;9.32;;;;;;;;;;4975221;28;20088;-88
2021/08/26 09:04:06;;;;;;;19.92;8.82;;;;;;;;;;4973644;28;20054;-90
2021/08/26 09:06:41;;;;;;;22.35;9.93;;;;;;;;;;4975129;28;20129;-88
2021/08/26 09:09:12;;;;;;;18.83;9.55;;;;;;;;;;4975016;28;20138;-89
2021/08/26 09:11:50;;;;;;;18.98;8.73;;;;;;;;;;4975100;28;20055;-90
2021/08/26 09:14:19;;;;;;;23.27;9.88;;;;;;;;;;4955081;28;20063;-90
2021/08/26 09:16:51;;;;;;;21.83;9.70;;;;;;;;;;4958995;28;20124;-90
2021/08/26 09:19:22;;;;;;;21.50;10.00;;;;;;;;;;4974338;28;20051;-87
2021/08/26 09:21:51;;;;;;;19.63;11.02;;;;;;;;;;4974803;28;20097;-87
2021/08/26 09:24:21;;;;;;;21.75;10.88;;;;;;;;;;4974057;28;20118;-89
2021/08/26 09:26:53;;;;;;;21.27;9.55;;;;;;;;;;4974571;28;20066;-89
2021/08/26 09:29:24;;;;;;;22.20;10.30;;;;;;;;;;4973638;28;20470;-89
2021/08/26 09:31:52;;;;;;;23.35;11.13;;;;;;;;;;4974814;28;20046;-89
2021/08/26 09:34:21;;;;;;;26.60;11.82;;;;;;;;;;4973891;28;20054;-88
2021/08/26 09:36:54;;;;;;;24.83;10.48;;;;;;;;;;4974386;28;20047;-88
2021/08/26 09:39:27;;;;;;;22.42;10.85;;;;;;;;;;4974660;28;20055;-89
2021/08/26 09:41:58;;;;;;;24.30;11.07;;;;;;;;;;4974111;28;20389;-89
2021/08/26 09:44:28;;;;;;;25.20;11.63;;;;;;;;;;4973775;28;20065;-88
2021/08/26 09:46:57;;;;;;;30.25;11.52;;;;;;;;;;4971278;28;20050;-89
2021/08/26 09:49:27;;;;;;;27.75;12.80;;;;;;;;;;4973891;28;20381;-87
2021/08/26 09:52:05;;;;;;;25.95;11.80;;;;;;;;;;4974689;28;20142;-86
2021/08/26 09:54:37;;;;;;;24.25;10.80;;;;;;;;;;4973988;28;20153;-88
2021/08/26 09:57:07;;;;;;;21.83;9.48;;;;;;;;;;4964068;28;20313;-89
2021/08/26 09:59:45;;;;;;;23.15;10.93;;;;;;;;;;4954574;29;20051;-89
2021/08/26 10:02:14;;;;;;;23.67;10.63;;;;;;;;;;4954998;29;20489;-88
2021/08/26 10:04:43;;;;;;;25.40;10.60;;;;;;;;;;4969045;28;20125;-89
2021/08/26 10:07:11;;;;;;;20.65;10.40;;;;;;;;;;4974556;28;20090;-89
2021/08/26 10:09:43;;;;;;;22.90;10.93;;;;;;;;;;4974239;28;20058;-89
2021/08/26 10:12:13;;;;;;;21.10;11.13;;;;;;;;;;4974730;28;20062;-88
2021/08/26 10:14:42;;;;;;;24.02;9.60;;;;;;;;;;4972945;28;20149;-88
2021/08/26 10:17:10;;;;;;;20.60;10.15;;;;;;;;;;4973762;28;20046;-87
2021/08/26 10:19:39;;;;;;;21.73;10.23;;;;;;;;;;4977074;28;20112;-88
2021/08/26 10:22:09;;;;;;;21.00;10.23;;;;;;;;;;4975936;28;20195;-88
2021/08/26 10:24:39;;;;;;;19.38;10.25;;;;;;;;;;4973041;28;20098;-89
2021/08/26 10:27:10;;;;;;;24.83;11.18;;;;;;;;;;4973819;28;20138;-88
2021/08/26 10:29:44;;;;;;;19.00;10.25;;;;;;;;;;4973761;28;20116;-89
2021/08/26 10:32:16;;;;;;;17.58;9.10;;;;;;;;;;4973557;28;20046;-88
2021/08/26 10:35:03;;;;;;;19.95;10.32;;;;;;;;;;4973188;28;20067;-89
2021/08/26 10:37:43;;;;;;;18.45;9.95;;;;;;;;;;4973379;28;20042;-85
2021/08/26 10:40:26;;;;;;;21.10;9.60;;;;;;;;;;4973714;28;20129;-88
2021/08/26 10:42:57;;;;;;;24.52;10.70;;;;;;;;;;4973301;28;20420;-89
2021/08/26 10:45:27;;;;;;;20.15;9.75;;;;;;;;;;4972800;28;20046;-87
2021/08/26 10:48:16;;;;;;;23.45;10.18;;;;;;;;;;4973846;28;20058;-89
2021/08/26 10:50:46;;;;;;;22.13;10.52;;;;;;;;;;4973059;28;20407;-88
2021/08/26 10:53:16;;;;;;;17.90;9.15;;;;;;;;;;4972786;28;20115;-89
2021/08/26 10:55:46;;;;;;;23.58;10.25;;;;;;;;;;4972283;28;20137;-88
2021/08/26 10:58:33;;;;;;;19.67;9.43;;;;;;;;;;4992233;28;20078;-89
2021/08/26 11:01:03;;;;;;;20.35;9.65;;;;;;;;;;4991788;28;20054;-89
2021/08/26 11:03:50;;;;;;;20.48;10.40;;;;;;;;;;4991461;28;20054;-89
2021/08/26 11:06:42;;;;;;;20.05;9.85;;;;;;;;;;4992174;28;20147;-89
2021/08/26 11:09:34;;;;;;;20.25;10.00;;;;;;;;;;4992365;28;20541;-89
2021/08/26 11:12:22;;;;;;;19.92;9.63;;;;;;;;;;4963158;28;20554;-87
2021/08/26 11:14:51;;;;;;;19.20;10.32;;;;;;;;;;4972515;28;20403;-88
2021/08/26 11:17:33;;;;;;;21.33;10.05;;;;;;;;;;4972676;28;20495;-88
2021/08/26 11:20:21;;;;;;;20.38;10.00;;;;;;;;;;4973019;28;20051;-88
2021/08/26 11:23:04;;;;;;;18.17;8.63;;;;;;;;;;4972662;28;20134;-89
2021/08/26 11:25:33;;;;;;;18.25;9.23;;;;;;;;;;4972838;28;20129;-88
2021/08/26 11:28:20;;;;;;;18.75;8.98;;;;;;;;;;4972838;28;20129;-89
2021/08/26 11:30:49;;;;;;;19.23;8.38;;;;;;;;;;4972744;28;20086;-89
2021/08/26 11:33:26;;;;;;;19.38;8.55;;;;;;;;;;4940442;28;20055;-89
2021/08/26 11:35:54;;;;;;;14.63;7.53;;;;;;;;;;4955032;28;20050;-89
2021/08/26 11:38:24;;;;;;;16.92;8.35;;;;;;;;;;4972938;28;20134;-89
2021/08/26 11:41:03;;;;;;;12.32;7.43;;;;;;;;;;4972249;28;20097;-89
2021/08/26 11:43:32;;;;;;;16.38;8.13;;;;;;;;;;4972177;28;20094;-87
2021/08/26 11:46:00;;;;;;;16.60;7.70;;;;;;;;;;4971696;28;20074;-89
2021/08/26 11:48:29;;;;;;;16.02;7.97;;;;;;;;;;4970931;28;20055;-88
2021/08/26 11:50:59;;;;;;;15.98;8.45;;;;;;;;;;4972578;28;20549;-88
2021/08/26 11:53:29;;;;;;;18.00;7.60;;;;;;;;;;4962871;28;20130;-88
2021/08/26 11:55:59;;;;;;;12.63;6.63;;;;;;;;;;4950779;29;20055;-88
2021/08/26 11:58:32;;;;;;;14.40;7.50;;;;;;;;;;4950530;29;20044;-88
2021/08/26 12:01:00;;;;;;;15.70;8.70;;;;;;;;;;4950645;29;20110;-89
2021/08/26 12:03:29;;;;;;;15.32;7.82;;;;;;;;;;4936418;29;20428;-87
2021/08/26 12:05:58;;;;;;;18.15;9.27;;;;;;;;;;4933699;29;20513;-89
2021/08/26 12:08:27;;;;;;;21.00;9.15;;;;;;;;;;4935748;29;20504;-89
2021/08/26 12:10:57;;;;;;;19.27;10.35;;;;;;;;;;4935832;29;20048;-86
2021/08/26 12:13:29;;;;;;;20.02;9.35;;;;;;;;;;4935422;29;20052;-90
2021/08/26 12:15:58;;;;;;;20.23;9.35;;;;;;;;;;4936417;29;20111;-88
2021/08/26 12:18:27;;;;;;;17.42;8.10;;;;;;;;;;4935920;29;20413;-88
2021/08/26 12:20:58;;;;;;;19.58;8.30;;;;;;;;;;4937686;29;20504;-89
2021/08/26 12:23:28;;;;;;;14.88;7.70;;;;;;;;;;4937931;29;20135;-90
2021/08/26 12:26:07;;;;;;;20.77;8.15;;;;;;;;;;4938044;29;20087;-89
2021/08/26 12:28:37;;;;;;;17.52;8.38;;;;;;;;;;4937602;29;20059;-89
2021/08/26 12:31:08;;;;;;;16.23;7.82;;;;;;;;;;4938231;29;20051;-90
2021/08/26 12:33:59;;;;;;;17.15;8.10;;;;;;;;;;4937558;28;20450;-88
2021/08/26 12:36:27;;;;;;;15.55;7.55;;;;;;;;;;4943118;29;20055;-88
2021/08/26 12:39:16;;;;;;;11.50;6.22;;;;;;;;;;4957073;28;20141;-88
2021/08/26 12:41:46;;;;;;;11.68;6.28;;;;;;;;;;4957815;29;20138;-88
2021/08/26 12:44:27;;;;;;;12.13;6.43;;;;;;;;;;4956269;28;20480;-88
2021/08/26 12:46:55;;;;;;;12.20;6.55;;;;;;;;;;4956354;29;20411;-89
2021/08/26 12:49:24;;;;;;;11.43;6.72;;;;;;;;;;4956725;29;20051;-87
2021/08/26 12:51:52;;;;;;;12.88;6.47;;;;;;;;;;4956127;29;20067;-87
2021/08/26 12:54:21;;;;;;;13.23;6.72;;;;;;;;;;4956042;28;20082;-86
2021/08/26 12:56:54;;;;;;;11.32;5.88;;;;;;;;;;4956308;28;20047;-89
2021/08/26 12:59:23;;;;;;;9.25;5.07;;;;;;;;;;4956245;29;20078;-86
2021/08/26 13:02:05;;;;;;;8.02;4.60;;;;;;;;;;4957464;29;20135;-88
2021/08/26 13:04:37;;;;;;;8.73;4.97;;;;;;;;;;4968780;28;20046;-90
2021/08/26 13:07:17;;;;;;;7.22;4.03;;;;;;;;;;4960549;28;20050;-89
2021/08/26 13:09:55;;;;;;;8.95;3.78;;;;;;;;;;4976651;28;20411;-90
2021/08/26 13:12:29;;;;;;;7.38;3.70;;;;;;;;;;4957615;29;20415;-89
2021/08/26 13:14:57;;;;;;;4.03;2.40;;;;;;;;;;4956655;29;20051;-88
2021/08/26 13:17:28;;;;;;;6.57;2.40;;;;;;;;;;4956319;28;20099;-89
2021/08/26 13:19:59;;;;;;;5.57;2.70;;;;;;;;;;4956696;29;20055;-89
2021/08/26 13:22:28;;;;;;;3.65;2.03;;;;;;;;;;4956583;29;20388;-90
2021/08/26 13:24:58;;;;;;;3.65;1.90;;;;;;;;;;4956209;29;20078;-89
2021/08/26 13:27:28;;;;;;;3.75;2.20;;;;;;;;;;4960891;28;20495;-88
2021/08/26 13:29:56;;;;;;;5.63;2.40;;;;;;;;;;4975000;28;20047;-91
2021/08/26 13:32:26;;;;;;;5.05;2.65;;;;;;;;;;4957524;28;20074;-87
2021/08/26 13:34:54;;;;;;;6.85;3.42;;;;;;;;;;4975050;28;20059;-89
2021/08/26 13:37:23;;;;;;;5.68;3.22;;;;;;;;;;4975121;28;20117;-90
2021/08/26 13:39:51;;;;;;;6.88;4.30;;;;;;;;;;4975084;28;20321;-89
2021/08/26 13:42:20;;;;;;;8.50;4.50;;;;;;;;;;4975911;28;20403;-89
2021/08/26 13:44:50;;;;;;;9.18;5.40;;;;;;;;;;4974845;28;20062;-89
2021/08/26 13:47:20;;;;;;;9.00;5.22;;;;;;;;;;4969639;28;20110;-90
2021/08/26 13:49:49;;;;;;;12.27;6.10;;;;;;;;;;4974783;28;20396;-89
2021/08/26 13:52:17;;;;;;;9.68;4.88;;;;;;;;;;4974667;28;20050;-89
2021/08/26 13:54:46;;;;;;;9.15;5.22;;;;;;;;;;4973568;28;20078;-89
2021/08/26 13:57:14;;;;;;;8.95;5.22;;;;;;;;;;4950196;28;20053;-88
2021/08/26 13:59:43;;;;;;;7.32;4.10;;;;;;;;;;4975270;28;20149;-89
2021/08/26 14:02:14;;;;;;;8.45;4.32;;;;;;;;;;4975035;28;20051;-90
2021/08/26 14:04:45;;;;;;;8.40;3.97;;;;;;;;;;4974019;28;20047;-90
2021/08/26 14:07:13;;;;;;;5.47;3.38;;;;;;;;;;4974356;28;20054;-89
2021/08/26 14:09:42;;;;;;;6.00;3.40;;;;;;;;;;4975157;28;20074;-90
2021/08/26 14:12:11;;;;;;;5.28;3.28;;;;;;;;;;4958042;28;20054;-90
2021/08/26 14:14:39;;;;;;;5.50;3.53;;;;;;;;;;4964470;28;20075;-89
2021/08/26 14:17:13;;;;;;;6.95;4.00;;;;;;;;;;4974246;28;20094;-90
2021/08/26 14:19:42;;;;;;;5.22;3.20;;;;;;;;;;4956839;28;20450;-90
2021/08/26 14:22:10;;;;;;;4.47;2.47;;;;;;;;;;4975094;28;20065;-89
2021/08/26 14:24:39;;;;;;;5.45;2.90;;;;;;;;;;4974466;28;20054;-89
2021/08/26 14:27:07;;;;;;;5.63;3.10;;;;;;;;;;4974251;28;20126;-89
2021/08/26 14:29:36;;;;;;;4.60;2.65;;;;;;;;;;4973427;28;20101;-89
2021/08/26 14:32:05;;;;;;;4.55;2.63;;;;;;;;;;4956436;28;20061;-89
2021/08/26 14:34:35;;;;;;;2.70;2.03;;;;;;;;;;4973285;28;20051;-90
2021/08/26 14:37:11;;;;;;;3.60;2.20;;;;;;;;;;4973172;28;20055;-89
2021/08/26 14:39:40;;;;;;;3.70;2.25;;;;;;;;;;4973371;28;20132;-89
2021/08/26 14:42:10;;;;;;;3.42;2.30;;;;;;;;;;4973654;28;20348;-89
2021/08/26 14:44:38;;;;;;;3.72;1.85;;;;;;;;;;4973178;28;20090;-89
2021/08/26 14:47:07;;;;;;;3.08;1.83;;;;;;;;;;4973146;28;20515;-89
2021/08/26 14:49:38;;;;;;;4.68;2.13;;;;;;;;;;4974772;28;20137;-89
2021/08/26 14:52:07;;;;;;;3.28;1.85;;;;;;;;;;4973103;28;20448;-89
2021/08/26 14:54:36;;;;;;;5.00;2.08;;;;;;;;;;4972994;28;20472;-89
2021/08/26 14:57:05;;;;;;;5.50;2.53;;;;;;;;;;4973068;28;20086;-88